Tyner, Indiana
Current Conditions -  °F | °C
As of 5:55 AM on Friday 19 Dec 2014 (Local Time) from KOXI Reporting Station
Overcast Overcast  
Wind Chill: 21°   Ceiling: 1400
Heat Index: 27°   Visibility: 5mi
Dew Point: 22°   Wind: 6mph
Humidity: 81%   Direction: 270°W
Pressure: 30.25"   Gusts: NA
Location:  41.41°N, 86.4°W
Report Text: KOXI 191055Z AUTO 27005KT 5SM BKN014 OVC022 M03/M05 A3025 RMK AO1 T10261055
Loading
Personal Weather Stations






























Interactive Weather Map New forecast layout! Learn more

10-Day Weather Forecast

Advertisements
Track Severe Weather on mobile